Roblin, Canada
Current Conditions -  °F | °C
As of 11:19 AM on Saturday 20 Dec 2014 (Local Time) from CYQV Reporting Station
Haze Haze  
Wind Chill: -13°   Ceiling: 200
Heat Index: -6°   Visibility: 3mi
Dew Point: -7°   Wind: 13mph
Humidity: 93%   Direction: 150°SSE
Pressure: 29.82"   Gusts: 18mph
Location:  51.23°N, 101.35°W
Report Text: CYQV 201719Z AUTO 15011G16KT 3SM BR OVC002 M06/M07 A2982 RMK SLP130
Loading
Personal Weather Stations






























Interactive Weather Map New forecast layout! Learn more

10-Day Weather Forecast

Advertisements
Track Severe Weather on mobile